Time;durP1;ratioP1;P1;durP2;ratioP2;P2;SDS_P1;SDS_P2;PMS_P1;PMS_P2;Temp;Humidity;BMP_temperature;BMP_pressure;BME280_temperature;BME280_humidity;BME280_pressure;Samples;Min_cycle;Max_cycle;Signal;HPM_P1;HPM_P2
2022/04/25 00:01:36;;;;;;;6.27;5.67;;;10.00;99.90;;;;;;5055670;28;20243;-75
2022/04/25 00:04:03;;;;;;;6.17;5.37;;;9.90;99.90;;;;;;5073948;28;20159;-75
2022/04/25 00:06:29;;;;;;;5.17;4.67;;;9.90;99.90;;;;;;5073284;28;20183;-75
2022/04/25 00:08:55;;;;;;;8.73;5.30;;;9.90;99.90;;;;;;5074116;28;20211;-75
2022/04/25 00:11:20;;;;;;;5.80;4.90;;;9.90;99.90;;;;;;5058338;28;20214;-75
2022/04/25 00:13:46;;;;;;;5.90;5.23;;;9.90;99.90;;;;;;5059239;28;20645;-75
2022/04/25 00:16:12;;;;;;;8.13;5.87;;;9.90;99.90;;;;;;5077736;28;20523;-75
2022/04/25 00:18:38;;;;;;;7.47;5.73;;;9.90;99.90;;;;;;5058981;28;20205;-75
2022/04/25 00:21:03;;;;;;;6.10;5.07;;;9.90;99.90;;;;;;5058744;28;20202;-75
2022/04/25 00:23:29;;;;;;;6.27;5.17;;;9.90;99.90;;;;;;5058731;28;20549;-75
2022/04/25 00:25:55;;;;;;;6.47;5.87;;;9.90;99.90;;;;;;5058767;28;20287;-75
2022/04/25 00:28:20;;;;;;;7.10;6.40;;;9.90;99.90;;;;;;5059105;28;20656;-75
2022/04/25 00:30:49;;;;;;;7.40;6.33;;;9.90;99.90;;;;;;5058878;28;20199;-75
2022/04/25 00:33:16;;;;;;;6.63;5.90;;;9.90;99.90;;;;;;5076523;28;20194;-75
2022/04/25 00:35:42;;;;;;;6.40;5.80;;;9.90;99.90;;;;;;5058886;28;20201;-76
2022/04/25 00:38:08;;;;;;;9.00;6.40;;;9.90;99.90;;;;;;5076557;28;20185;-75
2022/04/25 00:40:34;;;;;;;8.20;5.60;;;9.90;99.90;;;;;;5076718;28;20234;-75
2022/04/25 00:43:00;;;;;;;7.80;6.37;;;9.80;99.90;;;;;;5058514;28;20170;-75
2022/04/25 00:45:25;;;;;;;7.70;6.30;;;9.80;99.90;;;;;;5058315;28;20171;-75
2022/04/25 00:47:51;;;;;;;7.57;6.00;;;9.80;99.90;;;;;;5076234;28;20182;-75
2022/04/25 00:50:16;;;;;;;6.43;5.83;;;9.70;99.90;;;;;;5058719;28;20194;-76
2022/04/25 00:52:42;;;;;;;6.50;5.80;;;9.60;99.90;;;;;;5076903;28;20229;-75
2022/04/25 00:55:10;;;;;;;8.43;6.13;;;9.70;99.90;;;;;;5076862;28;20175;-75
2022/04/25 00:57:37;;;;;;;6.00;5.50;;;9.60;99.90;;;;;;5076548;28;20179;-75
2022/04/25 01:00:13;;;;;;;5.60;4.73;;;9.60;99.90;;;;;;5059046;28;20211;-76
2022/04/25 01:02:39;;;;;;;6.73;5.87;;;9.60;99.90;;;;;;5077376;28;20171;-76
2022/04/25 01:05:06;;;;;;;6.27;5.20;;;9.60;99.90;;;;;;5059632;28;20704;-77
2022/04/25 01:07:34;;;;;;;6.87;5.10;;;9.60;99.90;;;;;;5076853;28;20179;-76
2022/04/25 01:10:00;;;;;;;6.43;4.80;;;9.50;99.90;;;;;;5094743;22;20237;-80
2022/04/25 01:12:27;;;;;;;6.00;4.67;;;9.40;99.90;;;;;;5060899;28;20207;-79
2022/04/25 01:15:01;;;;;;;5.90;4.13;;;9.40;99.90;;;;;;5066101;28;20179;-79
2022/04/25 01:17:27;;;;;;;5.67;4.63;;;9.30;99.90;;;;;;5083219;28;20175;-80
2022/04/25 01:19:54;;;;;;;4.23;3.83;;;9.30;99.90;;;;;;5080318;28;20262;-80
2022/04/25 01:22:26;;;;;;;5.00;4.20;;;9.30;99.90;;;;;;5078563;28;20174;-78
2022/04/25 01:27:35;;;;;;;4.90;4.10;;;9.30;99.90;;;;;;5085038;28;20219;-80
2022/04/25 01:30:03;;;;;;;5.60;4.00;;;9.30;99.90;;;;;;5061888;28;20625;-78
2022/04/25 01:32:29;;;;;;;9.43;4.47;;;9.30;99.90;;;;;;5077801;28;20656;-79
2022/04/25 01:34:54;;;;;;;4.67;4.10;;;9.30;99.90;;;;;;5076099;28;20171;-79
2022/04/25 01:37:20;;;;;;;5.97;4.43;;;9.30;99.90;;;;;;5058504;28;20183;-80
2022/04/25 01:39:49;;;;;;;5.30;4.33;;;9.30;99.90;;;;;;5058705;28;20199;-79
2022/04/25 01:42:15;;;;;;;5.60;4.90;;;9.30;99.90;;;;;;5059455;28;20182;-79
2022/04/25 01:44:41;;;;;;;6.03;4.90;;;9.40;99.90;;;;;;5059260;28;20203;-79
2022/04/25 01:47:07;;;;;;;4.87;4.43;;;9.20;99.90;;;;;;5076945;28;20283;-80
2022/04/25 01:49:33;;;;;;;5.67;4.63;;;9.20;99.90;;;;;;5076328;28;20167;-78
2022/04/25 01:52:31;;;;;;;6.87;4.53;;;9.20;99.90;;;;;;5079334;28;20175;-80
2022/04/25 01:54:58;;;;;;;5.00;4.50;;;9.20;99.90;;;;;;5077767;28;20170;-79
2022/04/25 01:57:23;;;;;;;7.30;4.60;;;9.20;99.90;;;;;;5076484;28;20166;-79
2022/04/25 01:59:49;;;;;;;5.93;4.40;;;9.20;99.90;;;;;;5078162;28;20203;-79
2022/04/25 02:02:15;;;;;;;4.97;4.47;;;9.20;99.90;;;;;;5060899;28;20175;-79
2022/04/25 02:04:41;;;;;;;5.50;5.00;;;9.20;99.90;;;;;;5063814;28;20167;-80
2022/04/25 02:07:08;;;;;;;6.13;5.37;;;9.20;99.90;;;;;;5061755;28;20228;-79
2022/04/25 02:09:35;;;;;;;5.60;5.00;;;9.20;99.90;;;;;;5079258;28;20527;-80
2022/04/25 02:12:01;;;;;;;5.50;5.00;;;9.20;99.90;;;;;;5079077;28;20233;-80
2022/04/25 02:14:29;;;;;;;5.03;4.53;;;9.20;99.90;;;;;;5061884;28;20171;-79
2022/04/25 02:16:54;;;;;;;5.33;4.53;;;9.20;99.90;;;;;;5079252;28;20163;-80
2022/04/25 02:19:21;;;;;;;6.20;4.87;;;9.20;99.90;;;;;;5077690;28;20170;-79
2022/04/25 02:21:48;;;;;;;4.63;4.20;;;9.10;99.90;;;;;;5060273;28;20195;-81
2022/04/25 02:24:13;;;;;;;5.10;4.63;;;9.00;99.90;;;;;;5061367;28;20679;-79
2022/04/25 02:26:39;;;;;;;5.30;4.80;;;8.90;99.90;;;;;;5078671;28;20167;-79
2022/04/25 02:29:05;;;;;;;5.37;4.57;;;8.90;99.90;;;;;;5061341;28;20171;-79
2022/04/25 02:31:30;;;;;;;7.00;4.77;;;8.90;99.90;;;;;;5079309;28;20187;-80
2022/04/25 02:33:56;;;;;;;4.87;4.20;;;8.80;99.90;;;;;;5059523;28;20290;-79
2022/04/25 02:36:23;;;;;;;7.97;5.23;;;8.80;99.90;;;;;;5077509;28;20255;-79
2022/04/25 02:38:49;;;;;;;7.00;5.20;;;8.80;99.90;;;;;;5075939;28;20170;-79
2022/04/25 02:41:15;;;;;;;6.33;4.90;;;8.80;99.90;;;;;;5077071;28;20581;-79
2022/04/25 02:43:43;;;;;;;6.80;5.20;;;8.80;99.90;;;;;;5075780;28;20171;-79
2022/04/25 02:46:11;;;;;;;5.20;4.57;;;8.80;99.90;;;;;;5076122;28;20655;-79
2022/04/25 02:48:37;;;;;;;6.87;5.17;;;8.80;99.90;;;;;;5057580;28;20199;-80
2022/04/25 02:51:05;;;;;;;5.00;4.50;;;8.80;99.90;;;;;;5075721;28;20553;-79
2022/04/25 02:53:31;;;;;;;7.13;4.87;;;8.80;99.90;;;;;;5058164;28;20182;-79
2022/04/25 02:55:58;;;;;;;5.80;5.20;;;8.70;99.90;;;;;;5058949;28;20269;-79
2022/04/25 02:58:24;;;;;;;6.53;5.07;;;8.70;99.90;;;;;;5075567;28;20178;-79
2022/04/25 03:00:50;;;;;;;6.40;4.97;;;8.60;99.90;;;;;;5076275;28;20259;-79
2022/04/25 03:03:17;;;;;;;5.83;5.23;;;8.60;99.90;;;;;;5058743;28;20633;-79
2022/04/25 03:05:45;;;;;;;6.30;5.07;;;8.60;99.90;;;;;;5076373;28;20177;-79
2022/04/25 03:08:12;;;;;;;6.37;4.57;;;8.60;99.90;;;;;;5076212;28;20253;-80
2022/04/25 03:10:38;;;;;;;6.47;5.60;;;8.50;99.90;;;;;;5058401;28;20299;-79
2022/04/25 03:13:07;;;;;;;7.23;5.27;;;8.50;99.90;;;;;;5057251;28;20179;-80
2022/04/25 03:15:34;;;;;;;6.77;5.13;;;8.50;99.90;;;;;;5074987;28;20698;-79
2022/04/25 03:18:00;;;;;;;5.33;4.83;;;8.40;99.90;;;;;;5075606;28;20182;-79
2022/04/25 03:20:27;;;;;;;5.03;4.27;;;8.30;99.90;;;;;;5058002;28;20213;-79
2022/04/25 03:22:53;;;;;;;5.47;4.83;;;8.30;99.90;;;;;;5075677;28;20195;-79
2022/04/25 03:25:18;;;;;;;5.37;4.87;;;8.20;99.90;;;;;;5075320;28;20172;-79
2022/04/25 03:27:44;;;;;;;5.40;4.90;;;8.10;99.90;;;;;;5076610;28;20178;-79
2022/04/25 03:30:10;;;;;;;5.47;4.67;;;8.10;99.90;;;;;;5058570;28;20198;-80
2022/04/25 03:32:36;;;;;;;5.87;5.20;;;8.10;99.90;;;;;;5076604;28;20185;-79
2022/04/25 03:35:03;;;;;;;9.97;4.77;;;8.10;99.90;;;;;;5058574;28;20190;-79
2022/04/25 03:37:30;;;;;;;5.40;4.90;;;8.00;99.90;;;;;;5076268;28;20571;-79
2022/04/25 03:39:58;;;;;;;5.90;5.00;;;8.00;99.90;;;;;;5059157;28;20210;-80
2022/04/25 03:42:24;;;;;;;6.93;4.97;;;8.00;99.90;;;;;;5077078;28;20197;-80
2022/04/25 03:44:50;;;;;;;6.63;4.50;;;7.90;99.90;;;;;;5059746;28;20247;-79
2022/04/25 03:47:16;;;;;;;5.97;5.00;;;7.90;99.90;;;;;;5062845;28;20178;-79
2022/04/25 03:49:41;;;;;;;5.67;4.30;;;7.80;99.90;;;;;;5081332;28;20582;-80
2022/04/25 03:52:07;;;;;;;4.87;4.30;;;7.70;99.90;;;;;;5064251;28;20185;-79
2022/04/25 03:57:17;;;;;;;5.00;4.50;;;7.70;99.90;;;;;;5082840;28;20255;-79
2022/04/25 03:59:42;;;;;;;5.07;4.60;;;7.70;99.90;;;;;;5081600;28;20255;-80
2022/04/25 04:02:08;;;;;;;5.63;4.50;;;7.60;99.90;;;;;;5064719;28;20182;-80
2022/04/25 04:04:34;;;;;;;5.40;4.73;;;7.60;99.90;;;;;;5062398;28;20207;-79
2022/04/25 04:06:59;;;;;;;5.93;4.70;;;7.50;99.90;;;;;;5080482;28;20171;-79
2022/04/25 04:12:10;;;;;;;5.20;4.20;;;7.40;99.90;;;;;;5081604;28;20168;-79
2022/04/25 04:14:36;;;;;;;6.03;4.73;;;7.40;99.90;;;;;;5081630;28;20536;-80
2022/04/25 04:17:02;;;;;;;5.00;4.50;;;7.40;99.90;;;;;;5062143;28;20171;-80
2022/04/25 04:19:28;;;;;;;5.10;4.60;;;7.30;99.90;;;;;;5081721;28;20640;-79
2022/04/25 04:21:53;;;;;;;5.17;4.67;;;7.30;99.90;;;;;;5062939;28;20178;-79
2022/04/25 04:24:19;;;;;;;5.07;4.37;;;7.30;99.90;;;;;;5065211;28;20178;-80
2022/04/25 04:26:45;;;;;;;5.63;4.80;;;7.30;99.90;;;;;;5067449;28;20213;-79
2022/04/25 04:29:11;;;;;;;6.13;5.07;;;7.30;99.90;;;;;;5064287;28;20178;-79
2022/04/25 04:31:37;;;;;;;5.50;5.00;;;7.30;99.90;;;;;;5085632;28;20191;-79
2022/04/25 04:34:03;;;;;;;8.70;5.47;;;7.20;99.90;;;;;;5085186;28;20171;-80
2022/04/25 04:36:29;;;;;;;5.50;4.70;;;7.20;99.90;;;;;;5085179;28;20629;-80
2022/04/25 04:38:54;;;;;;;5.30;4.80;;;7.10;99.90;;;;;;5066130;28;20178;-80
2022/04/25 04:41:20;;;;;;;6.07;5.33;;;7.10;99.90;;;;;;5082399;28;20217;-80
2022/04/25 04:43:45;;;;;;;6.73;5.70;;;7.10;99.90;;;;;;5065446;28;20186;-79
2022/04/25 04:46:11;;;;;;;5.80;5.20;;;7.00;99.90;;;;;;5079811;28;20181;-80
2022/04/25 04:48:36;;;;;;;5.43;4.93;;;7.00;99.90;;;;;;5070518;28;20181;-81
2022/04/25 04:51:02;;;;;;;6.30;5.70;;;7.00;99.90;;;;;;5069124;28;20217;-80
2022/04/25 04:53:27;;;;;;;6.93;5.03;;;7.00;99.90;;;;;;5082221;28;20585;-80
2022/04/25 04:55:53;;;;;;;5.73;4.87;;;6.90;99.90;;;;;;5077279;28;20645;-79
2022/04/25 04:58:19;;;;;;;6.50;5.27;;;6.90;99.90;;;;;;5058979;28;20190;-79
2022/04/25 05:00:46;;;;;;;6.43;5.47;;;6.90;99.90;;;;;;5059229;28;20214;-80
2022/04/25 05:03:15;;;;;;;5.43;4.93;;;7.00;99.90;;;;;;5059627;28;20236;-80
2022/04/25 05:05:42;;;;;;;6.70;5.43;;;7.00;99.90;;;;;;5062165;28;20171;-81
2022/04/25 05:08:07;;;;;;;6.33;5.50;;;7.00;99.90;;;;;;5065264;28;20648;-80
2022/04/25 05:10:33;;;;;;;8.67;5.40;;;7.00;99.90;;;;;;5063888;28;20211;-80
2022/04/25 05:12:58;;;;;;;6.40;5.37;;;7.00;99.90;;;;;;5081452;28;20182;-80
2022/04/25 05:15:24;;;;;;;5.97;5.00;;;7.00;99.90;;;;;;5083785;28;20175;-80
2022/04/25 05:17:53;;;;;;;6.97;5.17;;;7.00;99.90;;;;;;5084128;28;20167;-80
2022/04/25 05:20:23;;;;;;;5.43;4.90;;;7.00;99.90;;;;;;5092064;28;20242;-81
2022/04/25 05:22:50;;;;;;;5.20;4.70;;;7.10;99.90;;;;;;5064522;28;20171;-79
2022/04/25 05:25:19;;;;;;;6.13;5.53;;;7.10;99.90;;;;;;5086761;28;20182;-80
2022/04/25 05:27:46;;;;;;;5.47;4.87;;;7.10;99.90;;;;;;5067481;28;20178;-79
2022/04/25 05:30:13;;;;;;;5.63;5.13;;;7.40;99.90;;;;;;5085636;28;20270;-80
2022/04/25 05:32:46;;;;;;;5.70;5.20;;;7.20;99.90;;;;;;5069256;28;20242;-80
2022/04/25 05:35:14;;;;;;;6.90;5.23;;;7.20;99.90;;;;;;5071348;28;20196;-79
2022/04/25 05:37:39;;;;;;;5.90;5.17;;;7.30;99.90;;;;;;5069211;28;20275;-79
2022/04/25 05:40:06;;;;;;;6.00;5.40;;;7.30;99.90;;;;;;5087354;28;20206;-80
2022/04/25 05:42:32;;;;;;;6.43;5.73;;;7.30;99.90;;;;;;5065102;28;20632;-80
2022/04/25 05:44:59;;;;;;;7.63;5.60;;;7.30;99.90;;;;;;5064038;28;20175;-80
2022/04/25 05:47:25;;;;;;;6.47;5.50;;;7.40;99.90;;;;;;5083824;28;20182;-80
2022/04/25 05:52:34;;;;;;;8.10;6.23;;;7.50;99.90;;;;;;5088940;28;20648;-80
2022/04/25 05:55:00;;;;;;;6.80;6.10;;;7.50;99.90;;;;;;5061359;28;20175;-78
2022/04/25 05:57:25;;;;;;;7.53;6.10;;;7.50;99.90;;;;;;5074684;28;20182;-78
2022/04/25 05:59:51;;;;;;;7.67;6.33;;;7.60;99.90;;;;;;5074720;28;20648;-77
2022/04/25 06:02:17;;;;;;;6.80;6.20;;;7.60;99.90;;;;;;5056771;28;20261;-77
2022/04/25 06:04:43;;;;;;;6.70;6.00;;;7.60;99.90;;;;;;5074830;28;20177;-77
2022/04/25 06:07:08;;;;;;;7.97;7.17;;;7.70;99.90;;;;;;5074270;28;20181;-78
2022/04/25 06:09:34;;;;;;;7.70;6.90;;;7.70;99.90;;;;;;5074429;28;20170;-77
2022/04/25 06:12:02;;;;;;;7.43;6.37;;;7.70;99.90;;;;;;5074649;28;20183;-78
2022/04/25 06:14:31;;;;;;;7.63;6.77;;;7.70;99.90;;;;;;5075515;28;20175;-77
2022/04/25 06:16:57;;;;;;;8.13;7.33;;;7.70;99.90;;;;;;5075862;28;20586;-78
2022/04/25 06:19:23;;;;;;;8.00;7.20;;;7.70;99.90;;;;;;5076153;28;20517;-78
2022/04/25 06:21:48;;;;;;;10.03;8.80;;;7.70;99.90;;;;;;5059418;28;20218;-78
2022/04/25 06:24:14;;;;;;;10.07;9.07;;;7.80;99.90;;;;;;5076461;28;20201;-78
2022/04/25 06:26:39;;;;;;;9.00;8.03;;;7.80;99.90;;;;;;5076292;28;20271;-78
2022/04/25 06:29:05;;;;;;;9.07;7.10;;;7.80;99.90;;;;;;5058785;28;20171;-78
2022/04/25 06:31:31;;;;;;;8.37;7.17;;;7.80;99.90;;;;;;5058399;28;20286;-77
2022/04/25 06:33:57;;;;;;;8.23;7.30;;;7.90;99.90;;;;;;5058226;28;20270;-78
2022/04/25 06:36:23;;;;;;;8.27;7.43;;;7.90;99.90;;;;;;5058120;28;20175;-78
2022/04/25 06:38:49;;;;;;;8.00;7.20;;;7.90;99.90;;;;;;5058813;28;20182;-78
2022/04/25 06:41:14;;;;;;;9.97;8.60;;;7.90;99.90;;;;;;5058301;28;20245;-78
2022/04/25 06:43:40;;;;;;;9.53;7.90;;;8.00;99.90;;;;;;5075491;28;20175;-77
2022/04/25 06:46:06;;;;;;;9.53;8.20;;;8.00;99.90;;;;;;5056734;28;20194;-77
2022/04/25 06:48:32;;;;;;;9.60;8.07;;;8.00;99.90;;;;;;5075670;28;20525;-77
2022/04/25 06:50:57;;;;;;;8.90;7.63;;;8.10;99.90;;;;;;5075080;28;20248;-78
2022/04/25 06:53:23;;;;;;;8.23;7.07;;;8.20;99.90;;;;;;5057387;28;20556;-77
2022/04/25 06:55:49;;;;;;;8.13;7.20;;;8.20;99.90;;;;;;5075712;28;20167;-78
2022/04/25 06:58:15;;;;;;;7.83;7.03;;;8.20;99.90;;;;;;5075958;28;20182;-78
2022/04/25 07:00:41;;;;;;;8.93;8.00;;;8.30;99.90;;;;;;5075654;28;20202;-77
2022/04/25 07:03:06;;;;;;;9.10;8.20;;;8.30;99.90;;;;;;5059391;28;20178;-78
2022/04/25 07:05:32;;;;;;;8.83;7.73;;;8.30;99.90;;;;;;5077418;28;20170;-78
2022/04/25 07:07:58;;;;;;;9.90;8.17;;;8.30;99.90;;;;;;5059458;28;20187;-78
2022/04/25 07:10:23;;;;;;;9.10;7.47;;;8.40;99.90;;;;;;5077168;28;20214;-78
2022/04/25 07:12:49;;;;;;;11.43;7.80;;;8.40;99.90;;;;;;5024772;22;20320;-73
2022/04/25 07:15:14;;;;;;;15.40;8.50;;;8.50;99.90;;;;;;4971659;28;20258;-72
2022/04/25 07:17:40;;;;;;;9.90;8.40;;;8.50;99.90;;;;;;4971341;28;20181;-72
2022/04/25 07:20:06;;;;;;;9.37;8.13;;;8.50;99.90;;;;;;4972434;28;20198;-73
2022/04/25 07:30:44;;;;;;;11.60;8.70;;;8.70;99.90;;;;;;4975020;28;20250;-72
2022/04/25 07:33:10;;;;;;;10.00;8.07;;;8.70;99.90;;;;;;4974704;28;20226;-72
2022/04/25 07:35:36;;;;;;;10.93;8.17;;;8.70;99.90;;;;;;4974617;28;20178;-72
2022/04/25 07:38:02;;;;;;;9.13;8.23;;;8.80;99.90;;;;;;4974555;28;20197;-72
2022/04/25 07:40:28;;;;;;;11.17;8.73;;;8.80;99.90;;;;;;4973211;28;20747;-73
2022/04/25 07:42:57;;;;;;;12.40;8.20;;;8.80;99.90;;;;;;4973167;28;20195;-73
2022/04/25 07:45:23;;;;;;;12.00;8.23;;;8.90;99.90;;;;;;4974677;28;20171;-73
2022/04/25 07:47:48;;;;;;;11.43;8.20;;;8.90;99.90;;;;;;4974459;28;20177;-72
2022/04/25 07:50:16;;;;;;;9.67;8.33;;;8.90;99.90;;;;;;4974671;28;20704;-72
2022/04/25 07:52:42;;;;;;;10.37;9.07;;;9.00;99.90;;;;;;4974295;28;20248;-72
2022/04/25 07:55:08;;;;;;;9.70;8.70;;;9.00;99.90;;;;;;4974307;28;20647;-72
2022/04/25 07:57:34;;;;;;;10.57;9.47;;;9.00;99.90;;;;;;4974288;28;20319;-72
2022/04/25 08:00:00;;;;;;;13.00;9.63;;;9.00;99.90;;;;;;4974459;28;20211;-72
2022/04/25 08:02:26;;;;;;;10.20;9.20;;;9.00;99.90;;;;;;4972836;28;20279;-72
2022/04/25 08:04:51;;;;;;;12.20;10.00;;;9.10;99.90;;;;;;4974167;28;20630;-73
2022/04/25 08:07:17;;;;;;;14.07;11.37;;;9.10;99.90;;;;;;4973999;28;20578;-72
2022/04/25 08:09:43;;;;;;;13.43;12.03;;;9.10;99.90;;;;;;4974350;28;20260;-72
2022/04/25 08:20:22;;;;;;;16.47;14.17;;;9.20;99.90;;;;;;4974168;28;20274;-73
2022/04/25 08:22:47;;;;;;;20.80;16.00;;;9.20;99.90;;;;;;4973162;28;20624;-73
2022/04/25 08:25:15;;;;;;;17.07;14.80;;;9.20;99.90;;;;;;4972552;28;20671;-73
2022/04/25 08:27:40;;;;;;;22.13;16.00;;;9.20;99.90;;;;;;4974102;28;20539;-73
2022/04/25 08:30:07;;;;;;;17.87;15.30;;;9.20;99.90;;;;;;4973755;28;20178;-73
2022/04/25 08:32:33;;;;;;;18.80;15.57;;;9.20;99.90;;;;;;4972570;28;20278;-73
2022/04/25 08:35:02;;;;;;;23.60;16.87;;;9.20;99.90;;;;;;4972492;28;20331;-73
2022/04/25 08:37:28;;;;;;;17.30;15.40;;;9.30;99.90;;;;;;4972452;28;20186;-73
2022/04/25 08:39:54;;;;;;;18.43;15.67;;;9.30;99.90;;;;;;4973556;28;20202;-73
2022/04/25 08:42:20;;;;;;;16.80;14.93;;;9.40;99.90;;;;;;4973559;28;20190;-73
2022/04/25 08:44:50;;;;;;;16.53;14.83;;;9.40;99.90;;;;;;4974118;28;20186;-72
2022/04/25 08:47:15;;;;;;;17.13;15.17;;;9.40;99.90;;;;;;4972248;28;20217;-73
2022/04/25 08:49:41;;;;;;;17.93;15.37;;;9.50;99.90;;;;;;4974073;28;20182;-73
2022/04/25 08:52:08;;;;;;;17.40;15.67;;;9.60;99.90;;;;;;4973691;28;20635;-73
2022/04/25 08:54:34;;;;;;;17.83;15.93;;;9.70;99.90;;;;;;4973406;28;20714;-73
2022/04/25 08:57:02;;;;;;;17.87;15.67;;;9.70;99.90;;;;;;4971752;28;20278;-73
2022/04/25 08:59:31;;;;;;;18.23;16.33;;;9.70;99.90;;;;;;4973301;28;20265;-73
2022/04/25 09:01:57;;;;;;;18.97;16.80;;;9.80;99.90;;;;;;4973470;28;20198;-73
2022/04/25 09:04:23;;;;;;;17.17;15.47;;;9.70;99.90;;;;;;4973255;28;20171;-73
2022/04/25 09:06:54;;;;;;;24.23;16.27;;;9.80;99.90;;;;;;4971985;28;20656;-73
2022/04/25 09:09:20;;;;;;;20.27;17.13;;;9.80;99.90;;;;;;4973468;28;20173;-73
2022/04/25 09:14:31;;;;;;;21.17;16.93;;;9.90;99.90;;;;;;4973705;28;20219;-73
2022/04/25 09:16:56;;;;;;;18.17;16.20;;;10.00;99.90;;;;;;4971866;28;20181;-73
2022/04/25 09:19:23;;;;;;;19.20;17.20;;;10.00;99.90;;;;;;4973033;28;20257;-73
2022/04/25 09:21:48;;;;;;;21.37;18.17;;;10.00;99.90;;;;;;4972904;28;20261;-73
2022/04/25 09:24:25;;;;;;;19.60;17.53;;;10.00;99.90;;;;;;4973027;28;20178;-72
2022/04/25 09:27:11;;;;;;;21.20;19.00;;;10.00;99.90;;;;;;4972973;28;20587;-72
2022/04/25 09:29:37;;;;;;;21.43;19.13;;;10.00;99.90;;;;;;4972968;28;20159;-72
2022/04/25 09:32:04;;;;;;;22.73;20.33;;;10.00;99.90;;;;;;4972816;28;20247;-73
2022/04/25 09:37:16;;;;;;;24.17;21.17;;;10.10;99.90;;;;;;4973376;28;20205;-73
2022/04/25 09:39:42;;;;;;;23.77;21.13;;;10.10;99.90;;;;;;4972983;28;20171;-72
2022/04/25 09:42:08;;;;;;;24.90;22.17;;;10.20;99.90;;;;;;4972372;28;20191;-73
2022/04/25 09:44:56;;;;;;;23.30;20.90;;;10.30;99.90;;;;;;4971312;28;20179;-72
2022/04/25 09:47:29;;;;;;;23.80;21.40;;;10.30;99.90;;;;;;4972635;28;20173;-73
2022/04/25 09:50:00;;;;;;;24.67;22.07;;;10.40;99.90;;;;;;4972925;28;20181;-73
2022/04/25 09:52:26;;;;;;;27.07;22.57;;;10.50;99.90;;;;;;4972522;28;20194;-73
2022/04/25 09:54:52;;;;;;;23.77;21.37;;;10.60;99.90;;;;;;4972527;28;20170;-73
2022/04/25 09:57:33;;;;;;;25.30;22.73;;;10.60;99.90;;;;;;4971302;28;20570;-73
2022/04/25 09:59:59;;;;;;;24.00;21.53;;;10.70;99.90;;;;;;4972350;28;20671;-73
2022/04/25 10:02:24;;;;;;;22.63;20.23;;;10.80;99.90;;;;;;4972353;28;20190;-73
2022/04/25 10:04:50;;;;;;;23.43;20.83;;;10.90;99.90;;;;;;4972380;28;20261;-73
2022/04/25 10:07:19;;;;;;;23.37;20.93;;;11.10;99.90;;;;;;4972301;28;20196;-73
2022/04/25 10:09:46;;;;;;;22.67;20.43;;;11.00;99.90;;;;;;4972551;28;20171;-73
2022/04/25 10:12:12;;;;;;;21.93;19.73;;;11.10;99.90;;;;;;4972182;28;20605;-73
2022/04/25 10:14:38;;;;;;;22.87;20.53;;;11.20;99.90;;;;;;4970920;28;20263;-73
2022/04/25 10:17:04;;;;;;;18.73;16.83;;;11.20;99.90;;;;;;4972256;28;20540;-73
2022/04/25 10:19:30;;;;;;;19.90;17.43;;;11.10;99.90;;;;;;4972151;28;20170;-73
2022/04/25 10:21:56;;;;;;;20.87;18.50;;;11.20;99.90;;;;;;4970693;28;20782;-73
2022/04/25 10:24:23;;;;;;;19.33;17.33;;;11.20;99.90;;;;;;4972047;28;20641;-73
2022/04/25 10:26:51;;;;;;;18.07;16.37;;;11.20;99.90;;;;;;4972033;28;20606;-73
2022/04/25 10:29:26;;;;;;;18.53;16.57;;;11.20;99.90;;;;;;4972254;28;20253;-73
2022/04/25 10:31:58;;;;;;;17.40;15.53;;;11.30;99.90;;;;;;4972072;28;20210;-73
2022/04/25 10:34:44;;;;;;;15.73;14.20;;;11.30;99.90;;;;;;4971990;28;20165;-73
2022/04/25 10:37:33;;;;;;;16.07;14.47;;;11.40;99.90;;;;;;4970707;28;20257;-73
2022/04/25 10:40:02;;;;;;;15.53;14.03;;;11.40;99.90;;;;;;4971775;28;20236;-73
2022/04/25 10:45:12;;;;;;;14.23;12.73;;;11.60;99.90;;;;;;4971852;28;20190;-73
2022/04/25 10:47:53;;;;;;;15.50;14.00;;;11.70;99.90;;;;;;4971826;28;20210;-73
2022/04/25 10:50:19;;;;;;;12.93;11.73;;;11.80;99.90;;;;;;4970539;28;20190;-73
2022/04/25 10:55:30;;;;;;;11.47;10.37;;;12.00;99.90;;;;;;4970858;28;20206;-73
2022/04/25 10:58:01;;;;;;;10.40;9.33;;;12.00;99.90;;;;;;4970395;28;20261;-73
2022/04/25 11:00:39;;;;;;;11.03;10.00;;;12.00;99.90;;;;;;4971739;28;20221;-73
2022/04/25 11:03:25;;;;;;;9.83;8.90;;;12.10;1.00;;;;;;4971471;28;20201;-73
2022/04/25 11:06:02;;;;;;;9.97;8.97;;;12.20;1.00;;;;;;4971738;28;20241;-73
2022/04/25 11:08:29;;;;;;;9.13;8.23;;;12.40;1.00;;;;;;4971785;28;20181;-73
2022/04/25 11:10:58;;;;;;;8.90;8.00;;;12.50;1.00;;;;;;4971349;28;20191;-73
2022/04/25 11:13:35;;;;;;;9.17;7.80;;;12.60;1.00;;;;;;4969983;28;20210;-73
2022/04/25 11:16:23;;;;;;;10.80;7.50;;;12.70;1.00;;;;;;4971451;28;20174;-72
2022/04/25 11:19:21;;;;;;;8.60;7.70;;;12.80;99.90;;;;;;4971443;28;20587;-73
2022/04/25 11:21:49;;;;;;;8.60;7.57;;;12.90;99.90;;;;;;4971218;28;20229;-73
2022/04/25 11:24:29;;;;;;;8.20;7.40;;;12.90;1.00;;;;;;4971785;28;20166;-73
2022/04/25 11:26:56;;;;;;;10.63;8.47;;;13.00;1.00;;;;;;4971626;28;20535;-73
2022/04/25 11:29:22;;;;;;;8.63;7.77;;;13.00;99.90;;;;;;4971255;28;20181;-73
2022/04/25 11:31:48;;;;;;;9.70;8.20;;;13.00;1.00;;;;;;4971683;28;20194;-73
2022/04/25 11:34:15;;;;;;;9.43;8.43;;;12.90;1.00;;;;;;4969956;28;20554;-73
2022/04/25 11:36:43;;;;;;;9.40;8.50;;;13.00;1.00;;;;;;4971418;28;20174;-73
2022/04/25 11:42:11;;;;;;;10.30;9.20;;;12.90;99.90;;;;;;4959339;28;20733;-73
2022/04/25 11:44:40;;;;;;;11.63;8.90;;;12.90;99.90;;;;;;4971016;28;20175;-73
2022/04/25 11:47:07;;;;;;;11.17;9.43;;;12.80;1.00;;;;;;4970912;28;20555;-73
2022/04/25 11:49:32;;;;;;;11.50;10.27;;;12.70;1.00;;;;;;4970899;28;20217;-72
2022/04/25 11:52:00;;;;;;;15.17;13.10;;;12.70;1.00;;;;;;4971140;28;20229;-73
2022/04/25 11:54:31;;;;;;;13.70;12.40;;;12.60;1.00;;;;;;4970952;28;20174;-73
2022/04/25 11:57:03;;;;;;;15.00;13.37;;;12.50;99.90;;;;;;4971133;28;20191;-73
2022/04/25 11:59:29;;;;;;;15.73;13.23;;;12.40;46.70;;;;;;4970962;28;20217;-73
2022/04/25 12:01:55;;;;;;;14.27;12.30;;;12.40;1.00;;;;;;4970649;28;20297;-73
2022/04/25 12:04:27;;;;;;;15.60;13.27;;;12.40;1.00;;;;;;4970848;28;20217;-73
2022/04/25 12:07:06;;;;;;;13.53;12.10;;;12.40;99.90;;;;;;4973065;28;20236;-73
2022/04/25 12:15:42;;;;;;;12.70;11.40;;;12.20;1.00;;;;;;4974604;28;20702;-73
2022/04/25 12:18:23;;;;;;;12.27;11.00;;;12.20;99.90;;;;;;4972727;28;20536;-73
2022/04/25 12:21:02;;;;;;;12.93;11.63;;;12.10;1.00;;;;;;4974339;28;20310;-73
2022/04/25 12:23:34;;;;;;;12.97;11.47;;;12.20;1.00;;;;;;4973849;28;20190;-73
2022/04/25 12:26:06;;;;;;;13.50;12.10;;;12.30;99.90;;;;;;4974180;28;20166;-73
2022/04/25 12:28:37;;;;;;;14.17;12.67;;;12.30;1.00;;;;;;4972635;28;20629;-73
2022/04/25 12:31:10;;;;;;;15.30;12.57;;;12.40;99.90;;;;;;4974161;28;20245;-73
2022/04/25 12:33:39;;;;;;;17.20;12.73;;;12.50;75.30;;;;;;4973668;28;20218;-73
2022/04/25 12:36:18;;;;;;;12.57;11.27;;;12.70;99.90;;;;;;4972386;28;20186;-73
2022/04/25 12:39:01;;;;;;;14.97;12.57;;;12.80;26.20;;;;;;4972468;28;20178;-72
2022/04/25 12:41:32;;;;;;;16.57;12.27;;;13.00;99.90;;;;;;4973766;28;20186;-73
2022/04/25 12:44:10;;;;;;;11.57;10.47;;;13.10;1.00;;;;;;4973671;28;20155;-73
2022/04/25 12:46:50;;;;;;;13.47;11.63;;;13.20;99.90;;;;;;4973842;28;20190;-73
2022/04/25 12:49:17;;;;;;;12.70;11.17;;;13.40;1.00;;;;;;4972236;28;20519;-73
2022/04/25 12:51:45;;;;;;;12.20;11.00;;;13.60;1.00;;;;;;4972170;28;20247;-73
2022/04/25 12:54:31;;;;;;;15.77;10.37;;;13.60;1.00;;;;;;4973490;28;20709;-73
2022/04/25 12:57:23;;;;;;;13.40;10.87;;;13.60;99.90;;;;;;4973469;28;20174;-72
2022/04/25 12:59:51;;;;;;;10.33;9.23;;;13.80;99.90;;;;;;4973365;28;20219;-73
2022/04/25 13:02:21;;;;;;;10.47;9.47;;;13.90;99.90;;;;;;4971972;28;20225;-73
2022/04/25 13:04:52;;;;;;;10.60;9.50;;;13.90;99.90;;;;;;4973609;28;20245;-73
2022/04/25 13:07:20;;;;;;;12.40;9.33;;;14.00;99.90;;;;;;4971977;28;20208;-73
2022/04/25 13:09:46;;;;;;;10.93;9.93;;;14.20;1.00;;;;;;4971951;28;20175;-73
2022/04/25 13:12:17;;;;;;;11.90;10.47;;;14.20;1.00;;;;;;5006621;22;20222;-78
2022/04/25 13:14:43;;;;;;;16.83;10.20;;;14.20;1.00;;;;;;5059420;28;20171;-77
2022/04/25 13:17:09;;;;;;;11.03;9.90;;;14.30;99.90;;;;;;5076538;28;20170;-77
2022/04/25 13:19:35;;;;;;;12.30;9.50;;;14.30;99.90;;;;;;5058220;28;20256;-79
2022/04/25 13:22:01;;;;;;;15.40;9.40;;;14.10;1.00;;;;;;5076509;28;20228;-76
2022/04/25 13:24:27;;;;;;;9.63;8.57;;;14.10;1.00;;;;;;5074708;28;20167;-76
2022/04/25 13:26:54;;;;;;;10.27;9.17;;;14.10;99.90;;;;;;5074714;28;20163;-76
2022/04/25 13:29:20;;;;;;;12.37;10.47;;;14.10;8.00;;;;;;5074777;28;20195;-77
2022/04/25 13:31:45;;;;;;;11.37;10.17;;;14.10;99.90;;;;;;5075786;28;20679;-76
2022/04/25 13:34:11;;;;;;;11.00;9.90;;;14.10;99.90;;;;;;5074634;28;20199;-77
2022/04/25 13:36:37;;;;;;;10.30;9.20;;;14.20;69.00;;;;;;5074598;28;20175;-77
2022/04/25 13:39:03;;;;;;;10.10;9.10;;;14.30;67.10;;;;;;5074624;28;20250;-77